TimePST,TemperatureF,Dew PointF,Humidity,Sea Level PressureIn,VisibilityMPH,Wind Direction,Wind SpeedMPH,Gust SpeedMPH,PrecipitationIn,Events,Conditions,WindDirDegrees,DateUTC
12:53 AM,39.0,28.0,65,30.14,9.0,ENE,3.5,-,N/A,,Clear,70,2014-01-18 08:53:00
1:53 AM,37.9,27.0,65,30.14,10.0,Calm,Calm,-,N/A,,Clear,0,2014-01-18 09:53:00
2:53 AM,36.0,26.1,67,30.14,10.0,Calm,Calm,-,N/A,,Clear,0,2014-01-18 10:53:00
3:53 AM,35.1,26.1,70,30.13,9.0,East,3.5,-,N/A,,Clear,80,2014-01-18 11:53:00
4:53 AM,36.0,28.0,73,30.14,9.0,Calm,Calm,-,N/A,,Clear,0,2014-01-18 12:53:00
5:53 AM,35.1,26.1,70,30.15,9.0,Calm,Calm,-,N/A,,Clear,0,2014-01-18 13:53:00
6:53 AM,34.0,25.0,70,30.16,9.0,Calm,Calm,-,N/A,,Clear,0,2014-01-18 14:53:00
7:53 AM,34.0,27.0,75,30.17,8.0,East,3.5,-,N/A,,Clear,80,2014-01-18 15:53:00
8:53 AM,42.1,28.9,60,30.17,9.0,Calm,Calm,-,N/A,,Clear,0,2014-01-18 16:53:00
9:53 AM,48.9,32.0,52,30.18,9.0,Calm,Calm,-,N/A,,Clear,0,2014-01-18 17:53:00
10:53 AM,55.9,30.9,39,30.17,10.0,SW,3.5,-,N/A,,Clear,220,2014-01-18 18:53:00
11:53 AM,64.9,30.9,28,30.14,10.0,Variable,3.5,-,N/A,,Clear,0,2014-01-18 19:53:00
12:53 PM,71.1,28.9,21,30.11,10.0,Variable,3.5,-,N/A,,Clear,0,2014-01-18 20:53:00
1:53 PM,73.0,28.0,19,30.09,10.0,East,9.2,-,N/A,,Clear,80,2014-01-18 21:53:00
2:53 PM,73.0,26.1,17,30.07,10.0,ENE,11.5,-,N/A,,Clear,70,2014-01-18 22:53:00
3:53 PM,71.1,27.0,19,30.07,10.0,ENE,9.2,-,N/A,,Clear,70,2014-01-18 23:53:00
4:53 PM,64.9,28.9,26,30.07,10.0,ENE,6.9,-,N/A,,Clear,70,2014-01-19 00:53:00
5:53 PM,57.0,28.9,34,30.08,10.0,Calm,Calm,-,N/A,,Clear,0,2014-01-19 01:53:00
6:53 PM,53.1,28.0,38,30.08,10.0,Calm,Calm,-,N/A,,Clear,0,2014-01-19 02:53:00
7:53 PM,51.1,27.0,39,30.09,10.0,Calm,Calm,-,N/A,,Clear,0,2014-01-19 03:53:00
8:53 PM,46.9,27.0,46,30.09,10.0,Calm,Calm,-,N/A,,Clear,0,2014-01-19 04:53:00
9:53 PM,45.0,27.0,49,30.10,10.0,Calm,Calm,-,N/A,,Clear,0,2014-01-19 05:53:00
10:53 PM,43.0,28.9,58,30.11,10.0,Calm,Calm,-,N/A,,Clear,0,2014-01-19 06:53:00
11:53 PM,42.1,26.1,53,30.09,10.0,Calm,Calm,-,N/A,,Clear,0,2014-01-19 07:53:00